createdAt,value
2022-08-11T00:02:37.519Z,75.68
2022-08-11T00:05:07.785Z,75.66
2022-08-11T00:07:41.262Z,75.62
2022-08-11T00:10:12.301Z,75.90
2022-08-11T00:12:39.643Z,75.82
2022-08-11T00:15:07.801Z,75.67
2022-08-11T00:17:35.099Z,75.85
2022-08-11T00:20:15.724Z,76.07
2022-08-11T00:22:45.631Z,75.69
2022-08-11T00:25:15.900Z,75.90
2022-08-11T00:27:44.261Z,76.23
2022-08-11T00:30:12.537Z,76.19
2022-08-11T00:32:42.073Z,75.80
2022-08-11T00:35:52.102Z,76.31
2022-08-11T00:38:00.212Z,75.94
2022-08-11T00:40:51.388Z,76.23
2022-08-11T00:43:43.061Z,76.14
2022-08-11T00:46:16.433Z,75.88
2022-08-11T00:49:05.921Z,76.04
2022-08-11T00:51:56.700Z,76.12
2022-08-11T00:54:45.030Z,76.11
2022-08-11T00:57:37.550Z,75.97
2022-08-11T01:00:19.302Z,76.05
2022-08-11T01:03:14.982Z,75.92
2022-08-11T01:05:57.050Z,76.16
2022-08-11T01:08:47.029Z,75.92
2022-08-11T01:11:35.511Z,76.41
2022-08-11T01:14:34.128Z,75.96
2022-08-11T01:17:35.338Z,76.24
2022-08-11T01:20:45.826Z,76.13
2022-08-11T01:23:07.296Z,76.08
2022-08-11T01:25:57.125Z,75.76
2022-08-11T01:29:01.958Z,76.21
2022-08-11T01:31:50.596Z,75.91
2022-08-11T01:34:59.338Z,76.05
2022-08-11T01:37:41.207Z,75.65
2022-08-11T01:40:30.663Z,75.53
2022-08-11T01:43:28.288Z,75.96
2022-08-11T01:46:07.100Z,75.80
2022-08-11T01:48:41.947Z,76.24
2022-08-11T01:51:30.235Z,75.79
2022-08-11T01:54:21.739Z,75.91
2022-08-11T01:57:25.945Z,75.88
2022-08-11T02:00:04.103Z,75.77
2022-08-11T02:02:47.801Z,76.14
2022-08-11T02:05:45.918Z,75.86
2022-08-11T02:08:32.874Z,76.35
2022-08-11T02:11:35.249Z,76.25
2022-08-11T02:14:19.281Z,75.89
2022-08-11T02:17:14.783Z,75.79
2022-08-11T02:20:11.119Z,75.87
2022-08-11T02:23:05.347Z,76.54
2022-08-11T02:25:45.108Z,76.19
2022-08-11T02:28:28.968Z,76.39
2022-08-11T02:32:11.025Z,76.45
2022-08-11T02:34:42.489Z,76.15
2022-08-11T02:37:24.443Z,76.64
2022-08-11T02:39:54.250Z,76.22
2022-08-11T02:42:47.609Z,76.56
2022-08-11T02:45:36.491Z,76.10
2022-08-11T02:48:59.310Z,76.35
2022-08-11T02:51:44.836Z,76.31
2022-08-11T02:54:30.187Z,76.01
2022-08-11T02:57:21.571Z,76.32
2022-08-11T02:59:57.289Z,76.23
2022-08-11T03:02:33.223Z,76.00
2022-08-11T03:05:13.832Z,76.20
2022-08-11T03:07:40.839Z,76.86
2022-08-11T03:10:21.588Z,76.25
2022-08-11T03:13:15.529Z,76.25
2022-08-11T03:16:24.531Z,76.36
2022-08-11T03:19:02.069Z,76.61
2022-08-11T03:22:02.473Z,76.70
2022-08-11T03:24:41.491Z,76.31
2022-08-11T03:27:32.633Z,76.40
2022-08-11T03:30:02.669Z,76.05
2022-08-11T03:33:12.118Z,75.98
2022-08-11T03:35:49.288Z,76.33
2022-08-11T03:38:17.063Z,76.68
2022-08-11T03:42:03.542Z,76.35
2022-08-11T03:44:35.707Z,76.47
2022-08-11T03:47:41.611Z,76.44
2022-08-11T03:50:29.380Z,76.27
2022-08-11T03:53:19.477Z,76.17
2022-08-11T03:56:14.060Z,76.25
2022-08-11T03:59:17.957Z,76.32
2022-08-11T04:01:58.657Z,76.19
2022-08-11T04:05:03.219Z,76.10
2022-08-11T04:08:07.331Z,75.98
2022-08-11T04:10:49.219Z,76.02
2022-08-11T04:13:36.722Z,76.00
2022-08-11T04:16:41.038Z,75.96
2022-08-11T04:19:29.661Z,76.07
2022-08-11T04:22:15.710Z,76.16
2022-08-11T04:25:31.633Z,75.90
2022-08-11T04:28:28.824Z,75.96
2022-08-11T04:31:10.194Z,75.90
2022-08-11T04:34:00.200Z,76.10
2022-08-11T04:37:16.633Z,75.79
2022-08-11T04:39:54.007Z,75.65
2022-08-11T04:42:45.490Z,75.44
2022-08-11T04:45:40.181Z,75.36
2022-08-11T04:48:42.471Z,75.10
2022-08-11T04:51:49.810Z,74.86
2022-08-11T04:55:13.021Z,74.38
2022-08-11T04:58:31.513Z,74.04
2022-08-11T05:01:37.455Z,73.57
2022-08-11T05:04:05.280Z,73.34
2022-08-11T05:07:05.349Z,73.10
2022-08-11T05:09:50.030Z,72.84
2022-08-11T05:12:37.160Z,72.61
2022-08-11T05:15:23.722Z,72.28
2022-08-11T05:18:17.536Z,72.13
2022-08-11T05:21:10.541Z,71.91
2022-08-11T05:24:00.188Z,71.74
2022-08-11T05:26:49.162Z,71.38
2022-08-11T05:29:47.524Z,71.42
2022-08-11T05:32:35.926Z,71.03
2022-08-11T05:35:05.668Z,71.00
2022-08-11T05:38:09.760Z,70.92
2022-08-11T05:41:00.085Z,70.70
2022-08-11T05:44:20.683Z,70.67
2022-08-11T05:46:58.439Z,70.35
2022-08-11T05:49:49.090Z,70.23
2022-08-11T05:52:41.497Z,70.25
2022-08-11T05:55:28.666Z,70.00
2022-08-11T05:58:04.570Z,69.90
2022-08-11T06:00:34.526Z,69.90
2022-08-11T06:03:07.389Z,69.85
2022-08-11T06:05:38.373Z,69.80
2022-08-11T06:08:12.660Z,69.83
2022-08-11T06:10:42.197Z,69.72
2022-08-11T06:13:10.577Z,69.70
2022-08-11T06:15:52.073Z,69.53
2022-08-11T06:18:19.458Z,69.39
2022-08-11T06:20:55.297Z,69.45
2022-08-11T06:23:25.264Z,69.29
2022-08-11T06:25:53.360Z,69.17
2022-08-11T06:28:36.262Z,69.12
2022-08-11T06:31:14.665Z,68.76
2022-08-11T06:34:04.902Z,68.73
2022-08-11T06:36:55.948Z,68.36
2022-08-11T06:39:58.728Z,67.94
2022-08-11T06:43:18.253Z,67.63
2022-08-11T06:46:07.326Z,67.02
2022-08-11T06:48:34.986Z,66.31
2022-08-11T06:51:12.489Z,65.68
2022-08-11T06:53:59.168Z,65.48
2022-08-11T07:00:02.925Z,64.31
2022-08-11T07:02:34.677Z,64.18
2022-08-11T07:05:17.565Z,63.43
2022-08-11T07:08:36.042Z,62.93
2022-08-11T07:11:50.877Z,62.37
2022-08-11T07:14:42.157Z,61.71
2022-08-11T07:17:12.028Z,61.01
2022-08-11T07:20:00.305Z,60.29
2022-08-11T07:22:48.067Z,59.86
2022-08-11T07:25:34.643Z,59.46
2022-08-11T07:28:33.476Z,58.74
2022-08-11T07:31:21.473Z,58.66
2022-08-11T07:34:08.375Z,58.11
2022-08-11T07:36:44.787Z,58.11
2022-08-11T07:39:21.128Z,57.74
2022-08-11T07:41:49.319Z,57.23
2022-08-11T07:44:17.485Z,57.23
2022-08-11T07:47:09.385Z,57.09
2022-08-11T07:49:55.326Z,57.01
2022-08-11T07:52:29.683Z,56.51
2022-08-11T07:55:01.335Z,56.50
2022-08-11T07:58:14.622Z,56.05
2022-08-11T08:00:59.237Z,55.86
2022-08-11T08:03:53.683Z,55.54
2022-08-11T08:06:41.093Z,55.70
2022-08-11T08:09:27.736Z,55.47
2022-08-11T08:12:14.298Z,55.28
2022-08-11T08:15:01.250Z,55.38
2022-08-11T08:18:09.476Z,55.01
2022-08-11T08:20:51.063Z,54.13
2022-08-11T08:23:33.556Z,53.75
2022-08-11T08:26:04.711Z,53.31
2022-08-11T08:28:32.991Z,53.15
2022-08-11T08:31:00.038Z,52.96
2022-08-11T08:33:29.697Z,52.71
2022-08-11T08:36:17.077Z,52.38
2022-08-11T08:38:51.227Z,51.80
2022-08-11T08:41:22.892Z,51.63
2022-08-11T08:43:51.107Z,50.98
2022-08-11T08:46:22.511Z,50.60
2022-08-11T08:48:49.903Z,50.14
2022-08-11T08:52:02.439Z,49.53
2022-08-11T08:54:37.208Z,48.89
2022-08-11T08:57:06.235Z,48.40
2022-08-11T08:59:47.434Z,47.98
2022-08-11T09:02:17.586Z,47.74
2022-08-11T09:04:46.336Z,47.73
2022-08-11T09:07:15.978Z,47.53
2022-08-11T09:09:50.514Z,47.30
2022-08-11T09:12:36.409Z,47.23
2022-08-11T09:15:10.547Z,46.69
2022-08-11T09:17:37.728Z,46.57
2022-08-11T09:20:26.637Z,46.39
2022-08-11T09:24:07.115Z,46.10
2022-08-11T09:26:22.726Z,46.49
2022-08-11T09:28:59.585Z,45.81
2022-08-11T09:31:27.575Z,45.49
2022-08-11T09:33:55.706Z,45.16
2022-08-11T09:36:41.315Z,44.54
2022-08-11T09:39:28.313Z,43.56
2022-08-11T09:42:02.888Z,43.24
2022-08-11T09:44:50.817Z,42.58
2022-08-11T09:47:30.003Z,41.93
2022-08-11T09:50:02.528Z,41.39
2022-08-11T09:52:37.015Z,41.06
2022-08-11T09:55:11.177Z,40.62
2022-08-11T09:58:03.979Z,40.24
2022-08-11T10:00:40.705Z,39.81
2022-08-11T10:03:11.817Z,39.31
2022-08-11T10:05:57.946Z,38.80
2022-08-11T10:08:29.157Z,38.50
2022-08-11T10:10:57.017Z,37.88
2022-08-11T10:13:44.049Z,37.68
2022-08-11T10:16:26.908Z,37.69
2022-08-11T10:18:54.376Z,37.54
2022-08-11T10:21:36.189Z,37.30
2022-08-11T10:24:22.806Z,36.93
2022-08-11T10:26:50.745Z,36.78
2022-08-11T10:29:44.253Z,36.56
2022-08-11T10:32:32.326Z,36.33
2022-08-11T10:35:00.298Z,36.34
2022-08-11T10:38:08.622Z,35.92
2022-08-11T10:40:22.405Z,36.08
2022-08-11T10:44:01.577Z,35.62
2022-08-11T10:46:29.724Z,35.59
2022-08-11T10:48:58.247Z,35.39
2022-08-11T10:51:51.180Z,35.47
2022-08-11T10:54:40.066Z,35.18
2022-08-11T10:57:25.495Z,35.33
2022-08-11T10:59:56.705Z,34.92
2022-08-11T11:02:24.362Z,34.72
2022-08-11T11:05:10.517Z,34.92
2022-08-11T11:07:50.186Z,34.81
2022-08-11T11:10:17.318Z,34.64
2022-08-11T11:13:12.585Z,34.71
2022-08-11T11:16:00.255Z,34.32
2022-08-11T11:18:40.606Z,34.27
2022-08-11T11:21:11.893Z,34.08
2022-08-11T11:23:50.925Z,33.91
2022-08-11T11:26:27.036Z,33.71
2022-08-11T11:29:32.169Z,33.79
2022-08-11T11:32:15.606Z,33.62
2022-08-11T11:35:01.485Z,33.70
2022-08-11T11:37:31.106Z,33.64
2022-08-11T11:39:58.699Z,33.47
2022-08-11T11:42:26.305Z,33.49
2022-08-11T11:44:56.048Z,33.33
2022-08-11T11:47:24.055Z,33.24
2022-08-11T11:49:51.137Z,33.39
2022-08-11T11:52:20.579Z,33.51
2022-08-11T11:54:52.135Z,33.36
2022-08-11T11:57:39.308Z,33.20
2022-08-11T12:00:33.670Z,33.06
2022-08-11T12:03:03.783Z,33.43
2022-08-11T12:05:34.207Z,33.42
2022-08-11T12:08:23.427Z,33.60
2022-08-11T12:11:14.268Z,33.59
2022-08-11T12:13:43.055Z,33.65
2022-08-11T12:16:33.423Z,33.86
2022-08-11T12:19:00.397Z,34.00
2022-08-11T12:21:28.966Z,33.96
2022-08-11T12:24:17.070Z,34.07
2022-08-11T12:26:54.299Z,34.29
2022-08-11T12:29:41.353Z,34.20
2022-08-11T12:32:11.192Z,34.40
2022-08-11T12:34:38.176Z,34.37
2022-08-11T12:37:13.003Z,34.49
2022-08-11T12:40:16.975Z,34.72
2022-08-11T12:43:20.705Z,34.75
2022-08-11T12:45:54.480Z,35.04
2022-08-11T12:49:00.607Z,35.10
2022-08-11T12:52:11.622Z,34.99
2022-08-11T12:54:57.313Z,34.97
2022-08-11T12:57:58.636Z,35.20
2022-08-11T13:00:46.141Z,35.20
2022-08-11T13:03:32.633Z,35.42
2022-08-11T13:06:04.281Z,35.42
2022-08-11T13:08:32.396Z,35.46
2022-08-11T13:11:19.084Z,35.65
2022-08-11T13:13:55.407Z,35.75
2022-08-11T13:16:55.765Z,35.61
2022-08-11T13:19:23.564Z,35.70
2022-08-11T13:21:51.307Z,35.71
2022-08-11T13:24:19.176Z,35.71
2022-08-11T13:26:49.984Z,35.74
2022-08-11T13:29:22.779Z,35.68
2022-08-11T13:31:50.562Z,35.49
2022-08-11T13:34:19.924Z,35.62
2022-08-11T13:36:52.496Z,35.55
2022-08-11T13:39:24.815Z,35.44
2022-08-11T13:41:56.458Z,35.27
2022-08-11T13:44:27.316Z,35.30
2022-08-11T13:47:05.248Z,35.13
2022-08-11T13:49:36.240Z,35.20
2022-08-11T13:52:12.937Z,35.21
2022-08-11T13:54:42.621Z,35.28
2022-08-11T13:57:13.663Z,35.43
2022-08-11T14:00:13.365Z,35.54
2022-08-11T14:02:52.399Z,35.30
2022-08-11T14:05:31.807Z,35.51
2022-08-11T14:08:04.066Z,35.37
2022-08-11T14:10:33.427Z,35.26
2022-08-11T14:13:21.583Z,35.53
2022-08-11T14:15:49.927Z,35.67
2022-08-11T14:18:16.781Z,35.55
2022-08-11T14:21:03.005Z,35.65
2022-08-11T14:23:33.713Z,35.80
2022-08-11T14:26:19.704Z,35.94
2022-08-11T14:28:47.543Z,35.92
2022-08-11T14:31:15.964Z,36.11
2022-08-11T14:33:58.677Z,36.49
2022-08-11T14:36:31.258Z,36.54
2022-08-11T14:38:58.527Z,36.60
2022-08-11T14:42:10.484Z,36.60
2022-08-11T14:44:55.092Z,36.71
2022-08-11T14:47:24.387Z,36.87
2022-08-11T14:50:09.484Z,36.84
2022-08-11T14:52:43.327Z,36.98
2022-08-11T14:55:29.841Z,37.02
2022-08-11T14:57:58.535Z,37.38
2022-08-11T15:00:26.425Z,37.25
2022-08-11T15:03:13.967Z,37.53
2022-08-11T15:05:56.829Z,37.87
2022-08-11T15:08:48.866Z,37.79
2022-08-11T15:11:36.459Z,37.92
2022-08-11T15:14:06.544Z,38.13
2022-08-11T15:16:52.411Z,38.18
2022-08-11T15:19:21.394Z,37.92
2022-08-11T15:22:19.016Z,38.22
2022-08-11T15:24:46.041Z,38.33
2022-08-11T15:27:33.385Z,38.66
2022-08-11T15:30:33.830Z,39.01
2022-08-11T15:33:24.993Z,38.84
2022-08-11T15:36:12.431Z,39.48
2022-08-11T15:38:43.208Z,39.73
2022-08-11T15:41:30.256Z,39.74
2022-08-11T15:44:15.992Z,40.10
2022-08-11T15:46:48.412Z,40.70
2022-08-11T15:49:22.062Z,40.79
2022-08-11T15:51:55.690Z,40.92
2022-08-11T15:54:26.502Z,41.33
2022-08-11T15:56:55.179Z,41.36
2022-08-11T15:59:43.787Z,41.24
2022-08-11T16:02:32.903Z,41.60
2022-08-11T16:05:04.264Z,41.85
2022-08-11T16:07:36.369Z,41.75
2022-08-11T16:10:10.914Z,41.97
2022-08-11T16:13:07.013Z,42.50
2022-08-11T16:16:05.702Z,42.44
2022-08-11T16:18:43.165Z,42.58
2022-08-11T16:21:33.917Z,42.97
2022-08-11T16:24:07.324Z,43.07
2022-08-11T16:27:11.282Z,43.31
2022-08-11T16:29:25.437Z,43.45
2022-08-11T16:32:11.829Z,43.88
2022-08-11T16:34:58.258Z,43.99
2022-08-11T16:37:44.246Z,44.61
2022-08-11T16:40:11.978Z,44.88
2022-08-11T16:43:06.275Z,44.97
2022-08-11T16:45:57.776Z,45.12
2022-08-11T16:48:36.060Z,45.31
2022-08-11T16:51:09.038Z,45.43
2022-08-11T16:53:54.800Z,45.77
2022-08-11T16:56:50.001Z,45.93
2022-08-11T16:59:36.612Z,46.11
2022-08-11T17:02:07.678Z,46.01
2022-08-11T17:05:12.481Z,46.17
2022-08-11T17:08:01.213Z,46.44
2022-08-11T17:10:57.756Z,46.67
2022-08-11T17:13:34.248Z,47.04
2022-08-11T17:16:10.977Z,47.06
2022-08-11T17:18:56.535Z,47.27
2022-08-11T17:21:33.872Z,47.42
2022-08-11T17:24:08.740Z,47.67
2022-08-11T17:27:04.490Z,47.84
2022-08-11T17:29:54.810Z,48.06
2022-08-11T17:32:56.934Z,48.46
2022-08-11T17:35:38.638Z,48.98
2022-08-11T17:38:09.539Z,49.52
2022-08-11T17:40:38.915Z,49.76
2022-08-11T17:43:27.591Z,50.13
2022-08-11T17:46:08.349Z,50.68
2022-08-11T17:48:48.021Z,50.92
2022-08-11T17:51:37.920Z,51.44
2022-08-11T17:54:25.531Z,51.96
2022-08-11T17:57:21.116Z,52.33
2022-08-11T17:59:53.454Z,52.85
2022-08-11T18:02:42.636Z,53.31
2022-08-11T18:05:13.475Z,53.78
2022-08-11T18:08:02.480Z,54.09
2022-08-11T18:10:49.749Z,54.42
2022-08-11T18:13:39.073Z,54.83
2022-08-11T18:16:25.466Z,55.17
2022-08-11T18:19:10.961Z,55.83
2022-08-11T18:22:14.187Z,56.07
2022-08-11T18:25:05.862Z,56.42
2022-08-11T18:27:53.713Z,56.72
2022-08-11T18:30:39.123Z,57.08
2022-08-11T18:33:50.502Z,57.58
2022-08-11T18:36:36.121Z,57.99
2022-08-11T18:39:22.287Z,58.37
2022-08-11T18:42:08.421Z,58.72
2022-08-11T18:44:55.461Z,59.24
2022-08-11T18:47:41.793Z,59.41
2022-08-11T18:50:39.405Z,59.81
2022-08-11T18:53:25.792Z,60.04
2022-08-11T18:56:11.983Z,60.28
2022-08-11T18:59:00.572Z,60.46
2022-08-11T19:01:46.888Z,60.62
2022-08-11T19:04:32.870Z,60.85
2022-08-11T19:07:24.239Z,61.13
2022-08-11T19:10:10.067Z,61.32
2022-08-11T19:13:00.339Z,61.55
2022-08-11T19:15:46.546Z,61.76
2022-08-11T19:18:35.760Z,62.10
2022-08-11T19:21:21.711Z,62.27
2022-08-11T19:24:10.477Z,62.74
2022-08-11T19:26:57.172Z,62.82
2022-08-11T19:30:07.279Z,63.21
2022-08-11T19:32:50.564Z,63.39
2022-08-11T19:35:36.475Z,63.63
2022-08-11T19:38:22.611Z,63.72
2022-08-11T19:41:08.831Z,64.07
2022-08-11T19:43:55.111Z,64.34
2022-08-11T19:46:41.767Z,64.74
2022-08-11T19:49:27.397Z,64.88
2022-08-11T19:52:14.096Z,65.25
2022-08-11T19:55:01.044Z,65.26
2022-08-11T19:57:48.230Z,65.46
2022-08-11T20:00:37.066Z,65.78
2022-08-11T20:03:25.780Z,66.03
2022-08-11T20:06:11.902Z,66.19
2022-08-11T20:09:00.265Z,66.71
2022-08-11T20:11:49.503Z,66.81
2022-08-11T20:14:37.164Z,67.03
2022-08-11T20:17:23.779Z,67.25
2022-08-11T20:20:10.627Z,67.64
2022-08-11T20:22:57.525Z,67.55
2022-08-11T20:25:43.446Z,67.89
2022-08-11T20:28:30.772Z,68.08
2022-08-11T20:31:16.277Z,68.03
2022-08-11T20:34:02.393Z,68.19
2022-08-11T20:36:54.101Z,68.52
2022-08-11T20:39:41.738Z,68.56
2022-08-11T20:42:30.739Z,68.87
2022-08-11T20:45:24.006Z,68.96
2022-08-11T20:48:15.172Z,69.14
2022-08-11T20:51:07.397Z,69.09
2022-08-11T20:53:59.526Z,69.19
2022-08-11T20:56:53.253Z,69.35
2022-08-11T20:59:56.762Z,69.20
2022-08-11T21:02:44.590Z,69.40
2022-08-11T21:06:09.320Z,69.62
2022-08-11T21:08:39.271Z,69.38
2022-08-11T21:11:28.936Z,69.77
2022-08-11T21:14:15.431Z,69.55
2022-08-11T21:17:26.941Z,70.01
2022-08-11T21:20:15.601Z,69.86
2022-08-11T21:23:10.445Z,70.40
2022-08-11T21:26:28.337Z,70.29
2022-08-11T21:29:14.974Z,70.59
2022-08-11T21:32:01.126Z,70.98
2022-08-11T21:34:46.866Z,70.74
2022-08-11T21:37:34.679Z,70.80
2022-08-11T21:40:23.218Z,71.09
2022-08-11T21:43:10.899Z,71.16
2022-08-11T21:45:57.452Z,71.11
2022-08-11T21:48:44.797Z,71.17
2022-08-11T21:51:30.642Z,71.16
2022-08-11T21:54:18.132Z,71.34
2022-08-11T21:57:05.183Z,71.53
2022-08-11T22:00:01.002Z,71.25
2022-08-11T22:02:52.242Z,71.47
2022-08-11T22:05:39.500Z,71.60
2022-08-11T22:08:25.582Z,71.69
2022-08-11T22:11:11.194Z,71.45
2022-08-11T22:14:06.012Z,71.47
2022-08-11T22:16:54.600Z,71.75
2022-08-11T22:19:40.789Z,71.82
2022-08-11T22:22:27.399Z,71.59
2022-08-11T22:25:16.115Z,71.97
2022-08-11T22:28:04.029Z,71.78
2022-08-11T22:30:49.804Z,71.63
2022-08-11T22:33:35.710Z,71.82
2022-08-11T22:36:26.879Z,71.82
2022-08-11T22:39:12.685Z,71.81
2022-08-11T22:41:58.177Z,72.01
2022-08-11T22:44:43.810Z,72.06
2022-08-11T22:47:38.066Z,71.89
2022-08-11T22:50:27.212Z,72.02
2022-08-11T22:53:12.894Z,72.24
2022-08-11T22:55:58.677Z,72.38
2022-08-11T22:58:44.843Z,72.35
2022-08-11T23:01:35.029Z,72.34
2022-08-11T23:04:21.528Z,72.38
2022-08-11T23:07:08.119Z,72.38
2022-08-11T23:09:53.872Z,72.55
2022-08-11T23:12:40.051Z,72.64
2022-08-11T23:15:26.022Z,72.53
2022-08-11T23:18:11.468Z,72.66
2022-08-11T23:20:59.353Z,72.73
2022-08-11T23:23:47.249Z,72.66
2022-08-11T23:26:34.451Z,72.69
2022-08-11T23:29:20.215Z,72.80
2022-08-11T23:32:06.188Z,72.81
2022-08-11T23:35:03.333Z,72.90
2022-08-11T23:37:51.056Z,72.67
2022-08-11T23:40:36.844Z,72.88
2022-08-11T23:43:22.530Z,72.81
2022-08-11T23:46:07.843Z,73.00
2022-08-11T23:48:55.189Z,72.97
2022-08-11T23:51:41.613Z,73.05
2022-08-11T23:54:28.348Z,73.09
2022-08-11T23:57:14.570Z,73.00
